createdAt,value
2023-03-05T00:01:33.753Z,1476.5
2023-03-05T00:03:17.364Z,1476
2023-03-05T00:05:01.189Z,1473.9
2023-03-05T00:06:44.881Z,1475.2
2023-03-05T00:08:28.446Z,1470.2
2023-03-05T00:10:12.235Z,1466.7
2023-03-05T00:11:56.076Z,1467.2
2023-03-05T00:13:39.649Z,1467.5
2023-03-05T00:15:23.281Z,1471.8
2023-03-05T00:17:07.052Z,1470.8
2023-03-05T00:18:50.714Z,1472.2
2023-03-05T00:20:34.445Z,1477.9
2023-03-05T00:22:18.258Z,1479.8
2023-03-05T00:24:01.839Z,1478.2
2023-03-05T00:25:45.517Z,1480.9
2023-03-05T00:27:29.269Z,1483.7
2023-03-05T00:29:12.942Z,1480
2023-03-05T00:30:56.636Z,1480.1
2023-03-05T00:32:40.283Z,1481.6
2023-03-05T00:34:24.132Z,1481.1
2023-03-05T00:36:07.823Z,1483.6
2023-03-05T00:37:51.533Z,1484.1
2023-03-05T00:39:35.198Z,1483.8
2023-03-05T00:41:18.951Z,1481.1
2023-03-05T00:43:02.518Z,1480.3
2023-03-05T00:44:46.411Z,1479.4
2023-03-05T00:46:29.919Z,1481.9
2023-03-05T00:48:13.656Z,1483.5
2023-03-05T00:49:57.369Z,1490.2
2023-03-05T00:51:41.159Z,1488.8
2023-03-05T00:53:24.752Z,1492.8
2023-03-05T00:55:08.447Z,1494.7
2023-03-05T00:56:52.194Z,1496.4
2023-03-05T00:58:35.892Z,1501.4
2023-03-05T01:00:19.564Z,1499.4
2023-03-05T01:02:03.410Z,1500.5
2023-03-05T01:03:46.930Z,1500.6
2023-03-05T01:05:30.632Z,1501.1
2023-03-05T01:07:14.335Z,1498.4
2023-03-05T01:08:58.049Z,1496
2023-03-05T01:10:41.826Z,1497
2023-03-05T01:12:25.500Z,1498
2023-03-05T01:14:09.242Z,1499.2
2023-03-05T01:15:52.841Z,1500.2
2023-03-05T01:17:36.653Z,1501
2023-03-05T01:19:20.308Z,1496.3
2023-03-05T01:21:04.003Z,1495.7
2023-03-05T01:22:47.676Z,1495.9
2023-03-05T01:24:31.479Z,1496.5
2023-03-05T01:26:15.082Z,1498.8
2023-03-05T01:27:58.913Z,1496.5
2023-03-05T01:29:42.592Z,1499.5
2023-03-05T01:31:26.308Z,1503.1
2023-03-05T01:33:09.864Z,1506.9
2023-03-05T01:34:53.635Z,1518.3
2023-03-05T01:36:37.320Z,1520.8
2023-03-05T01:38:21.024Z,1516.3
2023-03-05T01:40:04.679Z,1518.3
2023-03-05T01:41:48.455Z,1514.6
2023-03-05T01:43:32.132Z,1511.4
2023-03-05T01:45:15.793Z,1510.7
2023-03-05T01:46:59.496Z,1511.8
2023-03-05T01:48:43.179Z,1512.6
2023-03-05T01:50:26.956Z,1515.7
2023-03-05T01:52:10.606Z,1519
2023-03-05T01:55:38.018Z,1517.1
2023-03-05T01:57:21.687Z,1519.7
2023-03-05T01:59:05.406Z,1516
2023-03-05T02:00:49.162Z,1515
2023-03-05T02:02:32.796Z,1515.1
2023-03-05T02:04:16.496Z,1514.1
2023-03-05T02:06:00.238Z,1516.4
2023-03-05T02:07:43.903Z,1522.2
2023-03-05T02:09:27.632Z,1525.5
2023-03-05T02:11:11.327Z,1530
2023-03-05T02:12:55.038Z,1533.7
2023-03-05T02:14:38.802Z,1538.3
2023-03-05T02:16:22.442Z,1534.3
2023-03-05T02:18:06.129Z,1536.6
2023-03-05T02:19:49.823Z,1537.4
2023-03-05T02:21:33.549Z,1536.1
2023-03-05T02:23:17.242Z,1538.4
2023-03-05T02:25:01.001Z,1539.8
2023-03-05T02:26:44.703Z,1542
2023-03-05T02:28:28.373Z,1544.7
2023-03-05T02:30:12.100Z,1544
2023-03-05T02:31:55.838Z,1543.1
2023-03-05T02:33:39.522Z,1542.2
2023-03-05T02:35:23.219Z,1542.7
2023-03-05T02:37:06.850Z,1542.5
2023-03-05T02:38:50.588Z,1537.8
2023-03-05T02:40:34.266Z,1534.5
2023-03-05T02:42:17.994Z,1538.3
2023-03-05T02:44:01.673Z,1537.9
2023-03-05T02:45:45.372Z,1539.9
2023-03-05T02:47:29.083Z,1544.4
2023-03-05T02:49:12.776Z,1545.8
2023-03-05T02:50:56.485Z,1542.1
2023-03-05T02:52:40.181Z,1542.4
2023-03-05T02:54:23.893Z,1542.9
2023-03-05T02:56:07.639Z,1544.6
2023-03-05T02:57:51.294Z,1548.1
2023-03-05T02:59:35.042Z,1550.6
2023-03-05T03:01:18.693Z,1549
2023-03-05T03:03:02.401Z,1549.8
2023-03-05T03:04:46.102Z,1550
2023-03-05T03:06:29.804Z,1553.5
2023-03-05T03:08:13.524Z,1555.5
2023-03-05T03:09:57.216Z,1560.2
2023-03-05T03:11:40.990Z,1561.5
2023-03-05T03:13:24.680Z,1562.5
2023-03-05T03:15:08.323Z,1564.1
2023-03-05T03:16:52.023Z,1563.8
2023-03-05T03:18:35.719Z,1562.9
2023-03-05T03:20:19.437Z,1568.2
2023-03-05T03:22:03.138Z,1567.4
2023-03-05T03:23:46.885Z,1567.2
2023-03-05T03:25:30.533Z,1568.2
2023-03-05T03:27:14.233Z,1570.3
2023-03-05T03:28:57.957Z,1576.9
2023-03-05T03:30:41.678Z,1578.2
2023-03-05T03:32:25.347Z,1576.8
2023-03-05T03:34:09.066Z,1574.8
2023-03-05T03:35:52.758Z,1576.3
2023-03-05T03:37:36.471Z,1583.6
2023-03-05T03:39:20.216Z,1583
2023-03-05T03:41:03.888Z,1587.2
2023-03-05T03:42:47.562Z,1590.4
2023-03-05T03:44:31.402Z,1582.7
2023-03-05T03:46:15.055Z,1581.6
2023-03-05T03:47:58.687Z,1582.5
2023-03-05T03:49:42.412Z,1584.4
2023-03-05T03:51:26.101Z,1587
2023-03-05T03:53:09.797Z,1587.1
2023-03-05T03:54:53.483Z,1588.9
2023-03-05T03:56:37.200Z,1593.6
2023-03-05T03:58:20.909Z,1595.9
2023-03-05T04:00:04.598Z,1596.8
2023-03-05T04:01:48.303Z,1599.1
2023-03-05T04:03:32.012Z,1602.6
2023-03-05T04:05:15.704Z,1615.1
2023-03-05T04:06:59.412Z,1614.5
2023-03-05T04:08:43.169Z,1614.6
2023-03-05T04:10:26.818Z,1613.5
2023-03-05T04:12:10.621Z,1616.1
2023-03-05T04:13:54.221Z,1616.9
2023-03-05T04:15:37.914Z,1616.2
2023-03-05T04:17:21.638Z,1616.4
2023-03-05T04:19:05.408Z,1615.4
2023-03-05T04:20:49.031Z,1612.7
2023-03-05T04:22:32.774Z,1616.2
2023-03-05T04:24:16.445Z,1614.2
2023-03-05T04:26:00.144Z,1615.6
2023-03-05T04:27:43.868Z,1616.2
2023-03-05T04:29:27.548Z,1619.5
2023-03-05T04:31:11.254Z,1621.9
2023-03-05T04:32:54.960Z,1626.6
2023-03-05T04:34:38.658Z,1624.9
2023-03-05T04:36:22.341Z,1625.9
2023-03-05T04:38:06.064Z,1627.4
2023-03-05T04:39:49.750Z,1628.7
2023-03-05T04:41:33.459Z,1633.2
2023-03-05T04:43:17.167Z,1632.4
2023-03-05T04:45:00.944Z,1628.9
2023-03-05T04:46:44.573Z,1627
2023-03-05T04:48:28.298Z,1628.8
2023-03-05T04:50:11.959Z,1633.9
2023-03-05T04:51:55.780Z,1635.5
2023-03-05T04:53:39.412Z,1636.7
2023-03-05T04:55:23.077Z,1638.6
2023-03-05T04:57:06.922Z,1640.8
2023-03-05T05:00:34.237Z,1644.6
2023-03-05T05:02:17.902Z,1643.6
2023-03-05T05:04:01.622Z,1643.3
2023-03-05T05:05:45.291Z,1641.3
2023-03-05T05:07:28.988Z,1642.6
2023-03-05T05:09:12.729Z,1648
2023-03-05T05:10:56.404Z,1648.9
2023-03-05T05:12:40.101Z,1650.8
2023-03-05T05:14:23.796Z,1654.2
2023-03-05T05:16:07.500Z,1657.5
2023-03-05T05:17:51.236Z,1655
2023-03-05T05:19:34.924Z,1654.3
2023-03-05T05:21:18.710Z,1658.4
2023-03-05T05:23:02.320Z,1663.8
2023-03-05T05:24:46.022Z,1663.8
2023-03-05T05:26:29.715Z,1670
2023-03-05T05:28:13.422Z,1727.4
2023-03-05T05:29:57.117Z,1789.5
2023-03-05T05:31:40.823Z,1815.7
2023-03-05T05:33:24.598Z,1808.9
2023-03-05T05:35:08.311Z,1798.4
2023-03-05T05:36:51.945Z,1792.8
2023-03-05T05:38:35.649Z,1770.6
2023-03-05T05:40:19.427Z,1758.5
2023-03-05T05:42:03.054Z,1753.3
2023-03-05T05:43:46.767Z,1752
2023-03-05T05:45:30.460Z,1749.1
2023-03-05T05:47:14.159Z,1747.4
2023-03-05T05:48:57.858Z,1744.9
2023-03-05T05:50:41.566Z,1746.8
2023-03-05T05:52:25.304Z,1747.6
2023-03-05T05:54:08.983Z,1748.8
2023-03-05T05:55:52.695Z,1748.6
2023-03-05T05:57:36.406Z,1752.1
2023-03-05T05:59:20.075Z,1755.6
2023-03-05T06:01:03.795Z,1755.4
2023-03-05T06:02:47.483Z,1756.1
2023-03-05T06:04:31.191Z,1755.6
2023-03-05T06:06:14.897Z,1755.9
2023-03-05T06:07:58.651Z,1756.6
2023-03-05T06:09:42.310Z,1754.4
2023-03-05T06:11:26.006Z,1753.5
2023-03-05T06:13:09.693Z,1750.9
2023-03-05T06:14:53.399Z,1750.4
2023-03-05T06:16:37.096Z,1750
2023-03-05T06:18:20.805Z,1757.3
2023-03-05T06:20:04.540Z,1762.3
2023-03-05T06:21:48.228Z,1764.4
2023-03-05T06:23:31.924Z,1764.7
2023-03-05T06:25:15.615Z,1761.1
2023-03-05T06:26:59.325Z,1762.9
2023-03-05T06:28:43.026Z,1765
2023-03-05T06:30:26.775Z,1761.2
2023-03-05T06:32:10.435Z,1777.2
2023-03-05T06:33:54.129Z,1803.3
2023-03-05T06:35:37.905Z,1824.6
2023-03-05T06:37:21.633Z,1847
2023-03-05T06:39:05.229Z,1866.1
2023-03-05T06:40:48.948Z,1888.7
2023-03-05T06:42:32.725Z,1921.1
2023-03-05T06:44:16.340Z,1928.9
2023-03-05T06:46:00.043Z,1941.7
2023-03-05T06:47:43.749Z,1977.8
2023-03-05T06:49:27.450Z,1982.6
2023-03-05T06:51:11.187Z,1985.5
2023-03-05T06:52:54.843Z,1989
2023-03-05T06:54:38.610Z,1983.7
2023-03-05T06:56:22.254Z,1983
2023-03-05T06:58:06.023Z,1990.3
2023-03-05T06:59:49.662Z,1987.3
2023-03-05T07:01:33.373Z,1985.1
2023-03-05T07:03:17.067Z,1980.5
2023-03-05T07:05:00.836Z,1973.2
2023-03-05T07:06:44.535Z,1965.9
2023-03-05T07:08:28.232Z,1960.7
2023-03-05T07:10:11.895Z,1960
2023-03-05T07:11:55.656Z,1955.7
2023-03-05T07:13:39.293Z,1964.8
2023-03-05T07:15:23.007Z,1967.3
2023-03-05T07:17:06.748Z,1970.5
2023-03-05T07:18:50.482Z,1979.7
2023-03-05T07:20:34.093Z,1987.5
2023-03-05T07:22:22.060Z,1997.8
2023-03-05T07:24:05.771Z,1997.7
2023-03-05T07:25:49.475Z,1999.3
2023-03-05T07:27:54.553Z,2003.5
2023-03-05T07:29:53.180Z,2001.3
2023-03-05T07:31:36.877Z,1993.5
2023-03-05T07:33:24.855Z,1998
2023-03-05T07:35:17.113Z,2000.7
2023-03-05T07:37:05.186Z,1999
2023-03-05T07:38:48.904Z,1993.7
2023-03-05T07:40:32.492Z,1985.9
2023-03-05T07:42:16.213Z,1978.4
2023-03-05T07:43:59.885Z,1971.6
2023-03-05T07:45:43.624Z,1973
2023-03-05T07:47:27.347Z,1992.2
2023-03-05T07:49:10.990Z,1994.4
2023-03-05T07:50:54.687Z,1985.7
2023-03-05T07:52:38.396Z,1969.6
2023-03-05T07:54:22.104Z,1960.5
2023-03-05T07:56:05.826Z,1948.8
2023-03-05T07:57:49.491Z,1946.3
2023-03-05T07:59:33.216Z,1939.3
2023-03-05T08:01:16.984Z,1930.7
2023-03-05T08:03:00.608Z,1919
2023-03-05T08:04:44.467Z,1896.5
2023-03-05T08:06:28.036Z,1894.1
2023-03-05T08:08:11.767Z,1884.2
2023-03-05T08:09:55.509Z,1877.9
2023-03-05T08:11:39.223Z,1872.7
2023-03-05T08:13:22.933Z,1864.9
2023-03-05T08:15:06.645Z,1855.2
2023-03-05T08:16:50.223Z,1856.3
2023-03-05T08:18:33.976Z,1864.4
2023-03-05T08:20:17.635Z,1865
2023-03-05T08:22:01.366Z,1871.9
2023-03-05T08:23:45.143Z,1878.4
2023-03-05T08:25:28.732Z,1876.8
2023-03-05T08:27:12.472Z,1873.4
2023-03-05T08:28:56.141Z,1872.2
2023-03-05T08:30:39.854Z,1887.5
2023-03-05T08:32:23.605Z,1888.4
2023-03-05T08:34:07.281Z,1890.8
2023-03-05T08:35:50.949Z,1921.2
2023-03-05T08:37:34.680Z,1929.5
2023-03-05T08:39:18.519Z,1928.4
2023-03-05T08:41:02.063Z,1915.3
2023-03-05T08:42:45.780Z,1908.4
2023-03-05T08:44:29.456Z,1895.7
2023-03-05T08:46:13.171Z,1875.1
2023-03-05T08:47:56.870Z,1832.5
2023-03-05T08:49:40.591Z,1790.2
2023-03-05T08:51:24.276Z,1680.7
2023-03-05T08:53:07.984Z,1647.7
2023-03-05T08:54:51.682Z,1641
2023-03-05T08:56:35.461Z,1642.8
2023-03-05T08:58:19.084Z,1646.3
2023-03-05T09:00:02.794Z,1656.1
2023-03-05T09:01:46.484Z,1665.6
2023-03-05T09:03:30.203Z,1670.9
2023-03-05T09:05:13.888Z,1675.7
2023-03-05T09:06:57.606Z,1679
2023-03-05T09:08:41.386Z,1674.8
2023-03-05T09:10:25.005Z,1521.8
2023-03-05T09:12:08.719Z,670.6
2023-03-05T09:13:52.420Z,563.6
2023-03-05T09:15:36.113Z,487.8
2023-03-05T09:17:19.813Z,483.1
2023-03-05T09:19:03.523Z,502.6
2023-03-05T09:20:47.216Z,634.8
2023-03-05T09:22:30.964Z,676.3
2023-03-05T09:24:14.626Z,650.5
2023-03-05T09:25:58.331Z,648
2023-03-05T09:27:42.071Z,645.7
2023-03-05T09:29:25.737Z,648.1
2023-03-05T09:31:09.425Z,652.8
2023-03-05T09:32:53.130Z,658.5
2023-03-05T09:34:36.834Z,678.3
2023-03-05T09:36:20.538Z,739.1
2023-03-05T09:38:04.241Z,748.4
2023-03-05T09:39:47.942Z,773.8
2023-03-05T09:41:31.654Z,786.6
2023-03-05T09:43:15.356Z,797.1
2023-03-05T09:44:59.092Z,811.9
2023-03-05T09:46:42.758Z,817.6
2023-03-05T09:48:26.524Z,821.9
2023-03-05T09:50:10.167Z,825.8
2023-03-05T09:51:53.857Z,823.9
2023-03-05T09:53:37.564Z,819
2023-03-05T09:55:21.293Z,814.3
2023-03-05T09:57:04.973Z,805.2
2023-03-05T09:58:48.682Z,798.9
2023-03-05T10:00:32.384Z,799.6
2023-03-05T10:02:16.090Z,793.4
2023-03-05T10:03:59.801Z,788.8
2023-03-05T10:05:43.489Z,783.6
2023-03-05T10:07:27.191Z,775.2
2023-03-05T10:09:10.920Z,770
2023-03-05T10:10:54.586Z,769.4
2023-03-05T10:12:38.308Z,766.5
2023-03-05T10:14:22.002Z,763.9
2023-03-05T10:16:05.704Z,762.8
2023-03-05T10:17:49.420Z,761.7
2023-03-05T10:19:33.099Z,763.7
2023-03-05T10:21:16.801Z,764.8
2023-03-05T10:23:00.563Z,763
2023-03-05T10:24:44.218Z,761.2
2023-03-05T10:26:27.915Z,762
2023-03-05T10:28:11.607Z,759
2023-03-05T10:29:55.328Z,758.4
2023-03-05T10:31:39.025Z,758.8
2023-03-05T10:33:22.721Z,762.6
2023-03-05T10:35:06.428Z,771.1
2023-03-05T10:36:50.124Z,771.1
2023-03-05T10:38:33.930Z,773.7
2023-03-05T10:40:17.538Z,771.6
2023-03-05T10:42:01.242Z,772.8
2023-03-05T10:43:44.944Z,775.2
2023-03-05T10:45:28.684Z,773.3
2023-03-05T10:47:12.350Z,773
2023-03-05T10:48:56.046Z,776.4
2023-03-05T10:50:39.743Z,778.5
2023-03-05T10:52:23.465Z,778.6
2023-03-05T10:54:07.177Z,780
2023-03-05T10:55:50.862Z,787.9
2023-03-05T10:57:34.567Z,800.1
2023-03-05T10:59:18.285Z,808.7
2023-03-05T11:01:01.968Z,818.4
2023-03-05T11:02:45.668Z,825.1
2023-03-05T11:04:29.373Z,859.7
2023-03-05T11:06:13.071Z,925.3
2023-03-05T11:07:56.773Z,991.5
2023-03-05T11:09:40.472Z,1055.3
2023-03-05T11:11:24.204Z,1045.3
2023-03-05T11:13:07.864Z,1038.4
2023-03-05T11:14:51.576Z,1031.8
2023-03-05T11:16:35.304Z,1023.8
2023-03-05T11:18:18.984Z,1015.3
2023-03-05T11:20:02.686Z,1009.4
2023-03-05T11:21:46.381Z,1006.8
2023-03-05T11:23:30.090Z,1007.1
2023-03-05T11:25:13.795Z,1006.2
2023-03-05T11:26:57.558Z,1003.8
2023-03-05T11:28:41.328Z,1001.9
2023-03-05T11:30:24.978Z,1001.2
2023-03-05T11:32:08.613Z,996.7
2023-03-05T11:33:52.303Z,998.2
2023-03-05T11:35:36.022Z,998.2
2023-03-05T11:37:19.714Z,993.7
2023-03-05T11:39:03.418Z,989.6
2023-03-05T11:40:47.119Z,991.3
2023-03-05T11:42:30.864Z,992.9
2023-03-05T11:44:14.512Z,992.1
2023-03-05T11:45:58.218Z,993.1
2023-03-05T11:47:41.944Z,995.4
2023-03-05T11:49:25.639Z,994.6
2023-03-05T11:51:09.331Z,989.7
2023-03-05T11:52:53.168Z,987.4
2023-03-05T11:54:36.731Z,987.2
2023-03-05T11:56:20.482Z,988.5
2023-03-05T11:58:04.205Z,987.4
2023-03-05T11:59:47.886Z,986.1
2023-03-05T12:01:31.608Z,988
2023-03-05T12:03:15.269Z,986.4
2023-03-05T12:04:58.964Z,988.4
2023-03-05T12:06:42.671Z,988.3
2023-03-05T12:08:26.376Z,990.2
2023-03-05T12:10:10.064Z,989.5
2023-03-05T12:11:53.769Z,986.4
2023-03-05T12:13:37.491Z,985
2023-03-05T12:15:21.186Z,981.8
2023-03-05T12:17:04.902Z,981.6
2023-03-05T12:20:32.295Z,978.7
2023-03-05T12:22:15.988Z,979.5
2023-03-05T12:23:59.706Z,977.5
2023-03-05T12:25:43.384Z,979.5
2023-03-05T12:27:27.090Z,983.9
2023-03-05T12:29:10.798Z,983.7
2023-03-05T12:30:54.500Z,982.2
2023-03-05T12:32:38.216Z,979
2023-03-05T12:34:21.901Z,971.7
2023-03-05T12:36:05.612Z,967.7
2023-03-05T12:37:49.310Z,964.5
2023-03-05T12:39:33.028Z,961.1
2023-03-05T12:41:16.707Z,960.4
2023-03-05T12:43:00.486Z,963.1
2023-03-05T12:44:44.140Z,961.3
2023-03-05T12:46:27.845Z,963.8
2023-03-05T12:48:11.686Z,971.1
2023-03-05T12:49:55.314Z,969.9
2023-03-05T12:51:38.938Z,968
2023-03-05T12:53:22.637Z,970.4
2023-03-05T12:55:06.350Z,982.6
2023-03-05T12:56:50.085Z,1009.8
2023-03-05T12:58:33.779Z,1012.4
2023-03-05T13:00:17.455Z,1019.1
2023-03-05T13:02:01.186Z,1026.1
2023-03-05T13:03:44.907Z,1034.2
2023-03-05T13:05:28.631Z,1038.9
2023-03-05T13:07:12.252Z,1057.7
2023-03-05T13:08:55.944Z,1068.2
2023-03-05T13:10:39.647Z,1070.9
2023-03-05T13:12:23.407Z,1072.5
2023-03-05T13:14:07.052Z,1058.7
2023-03-05T13:15:50.781Z,1029.8
2023-03-05T13:17:34.593Z,1021.5
2023-03-05T13:19:18.277Z,1014.7
2023-03-05T13:21:01.877Z,1022.3
2023-03-05T13:22:45.627Z,1030.8
2023-03-05T13:24:29.481Z,1027.6
2023-03-05T13:26:12.962Z,1043.8
2023-03-05T13:27:56.660Z,1092.5
2023-03-05T13:29:40.509Z,1084.1
2023-03-05T13:31:24.110Z,1080.4
2023-03-05T13:33:07.903Z,1084.5
2023-03-05T13:34:51.535Z,1094.8
2023-03-05T13:36:35.325Z,1100.8
2023-03-05T13:38:18.961Z,1105.9
2023-03-05T13:40:02.674Z,1114.5
2023-03-05T13:41:46.392Z,1129.7
2023-03-05T13:43:30.038Z,1154
2023-03-05T13:45:13.697Z,1186.2
2023-03-05T13:46:57.386Z,1205.2
2023-03-05T13:48:41.151Z,1214.6
2023-03-05T13:50:24.854Z,1224.1
2023-03-05T13:52:08.525Z,1232.6
2023-03-05T13:53:52.306Z,1239.1
2023-03-05T13:55:35.924Z,1249.7
2023-03-05T13:57:19.596Z,1265.5
2023-03-05T13:59:03.318Z,1276.1
2023-03-05T14:00:47.002Z,1285.4
2023-03-05T14:02:30.739Z,1293.3
2023-03-05T14:04:14.488Z,1306.6
2023-03-05T14:05:58.162Z,1330.1
2023-03-05T14:07:41.864Z,1338.7
2023-03-05T14:09:25.583Z,1347.1
2023-03-05T14:11:09.408Z,1369.1
2023-03-05T14:12:53.045Z,1384.9
2023-03-05T14:14:36.799Z,1397.8
2023-03-05T14:16:20.444Z,1396
2023-03-05T14:18:04.063Z,1402.5
2023-03-05T14:19:47.755Z,1413.8
2023-03-05T14:21:31.475Z,1421.8
2023-03-05T14:23:15.193Z,1435.3
2023-03-05T14:24:58.861Z,1437.1
2023-03-05T14:26:42.645Z,1437.7
2023-03-05T14:28:26.265Z,1457.8
2023-03-05T14:30:10.038Z,1471.1
2023-03-05T14:31:53.738Z,1475.6
2023-03-05T14:33:37.387Z,1480.1
2023-03-05T14:35:21.149Z,1488.6
2023-03-05T14:37:04.913Z,1501.3
2023-03-05T14:38:48.488Z,1504.5
2023-03-05T14:40:32.238Z,1512.8
2023-03-05T14:42:15.928Z,1522
2023-03-05T14:43:59.714Z,1534.7
2023-03-05T14:45:43.263Z,1537.7
2023-03-05T14:47:27.109Z,1545.6
2023-03-05T14:49:10.718Z,1555.7
2023-03-05T14:50:54.556Z,1565.6
2023-03-05T14:52:38.152Z,1578.1
2023-03-05T14:54:21.787Z,1588.1
2023-03-05T14:57:49.238Z,1602.9
2023-03-05T14:59:32.902Z,1600.3
2023-03-05T15:01:16.776Z,1592.2
2023-03-05T15:03:00.301Z,1592.8
2023-03-05T15:04:44.000Z,1590.1
2023-03-05T15:06:27.707Z,1593.1
2023-03-05T15:08:11.409Z,1601.9
2023-03-05T15:11:38.953Z,996.2
2023-03-05T15:13:22.630Z,753.1
2023-03-05T15:15:06.237Z,680.7
2023-03-05T15:16:49.987Z,1269.9
2023-03-05T15:18:33.625Z,1200.7
2023-03-05T15:20:17.323Z,1034.4
2023-03-05T15:22:01.047Z,1045.7
2023-03-05T15:23:44.861Z,1058.1
2023-03-05T15:25:28.539Z,1069
2023-03-05T15:27:12.135Z,1076.8
2023-03-05T15:28:55.858Z,1082
2023-03-05T15:30:39.543Z,1089.1
2023-03-05T15:32:23.251Z,1099.2
2023-03-05T15:34:06.988Z,1111.5
2023-03-05T15:35:50.762Z,1117.9
2023-03-05T15:37:34.416Z,1118.2
2023-03-05T15:39:18.135Z,1122.4
2023-03-05T15:41:01.765Z,1123.1
2023-03-05T15:42:45.501Z,1122.2
2023-03-05T15:44:29.247Z,1123.7
2023-03-05T15:46:12.998Z,1135.3
2023-03-05T15:47:56.655Z,1143.7
2023-03-05T15:49:40.322Z,1149.5
2023-03-05T15:51:24.030Z,1147.3
2023-03-05T15:53:07.683Z,1153.7
2023-03-05T15:54:51.372Z,1156.9
2023-03-05T15:56:35.161Z,1155.2
2023-03-05T15:58:18.849Z,1155.5
2023-03-05T16:00:02.497Z,1152.5
2023-03-05T16:01:46.289Z,1154.4
2023-03-05T16:03:30.032Z,1157.1
2023-03-05T16:05:13.596Z,1161.3
2023-03-05T16:06:57.341Z,1165.6
2023-03-05T16:08:41.070Z,1168.5
2023-03-05T16:10:24.889Z,1186.9
2023-03-05T16:12:08.466Z,1182.3
2023-03-05T16:13:52.239Z,1181.2
2023-03-05T16:15:35.915Z,1184.9
2023-03-05T16:17:19.684Z,1185.3
2023-03-05T16:19:03.322Z,1181.2
2023-03-05T16:20:47.072Z,1180.8
2023-03-05T16:22:30.673Z,1174.8
2023-03-05T16:24:14.312Z,1174.2
2023-03-05T16:25:58.153Z,1176
2023-03-05T16:27:41.725Z,1177.1
2023-03-05T16:29:25.556Z,1178.9
2023-03-05T16:31:09.183Z,1181.5
2023-03-05T16:32:52.894Z,1181.8
2023-03-05T16:34:36.532Z,1188
2023-03-05T16:36:20.379Z,1194.7
2023-03-05T16:38:03.974Z,1197.7
2023-03-05T16:39:47.637Z,1195.7
2023-03-05T16:41:31.344Z,1196.2
2023-03-05T16:43:15.041Z,1197
2023-03-05T16:44:58.747Z,1192.2
2023-03-05T16:46:42.511Z,1191.2
2023-03-05T16:48:26.157Z,1191.1
2023-03-05T16:50:09.958Z,1188.5
2023-03-05T16:51:53.612Z,1188.3
2023-03-05T16:53:37.427Z,1187
2023-03-05T16:55:21.096Z,1185.3
2023-03-05T16:57:04.718Z,1184.5
2023-03-05T16:58:48.457Z,1184.2
2023-03-05T17:00:32.080Z,1183.6
2023-03-05T17:02:15.855Z,1185.2
2023-03-05T17:03:59.478Z,1184.1
2023-03-05T17:05:43.258Z,1184.3
2023-03-05T17:07:26.961Z,1181.6
2023-03-05T17:09:10.674Z,1178.3
2023-03-05T17:10:54.378Z,1179.9
2023-03-05T17:12:38.020Z,1183.4
2023-03-05T17:14:21.809Z,1186.4
2023-03-05T17:16:05.517Z,1184.8
2023-03-05T17:17:49.243Z,1181.4
2023-03-05T17:19:32.880Z,1179
2023-03-05T17:21:16.645Z,1178.7
2023-03-05T17:23:00.263Z,1174.9
2023-03-05T17:24:44.065Z,1169.5
2023-03-05T17:26:27.708Z,1164.8
2023-03-05T17:28:11.365Z,1167
2023-03-05T17:29:55.174Z,1167.7
2023-03-05T17:31:38.749Z,1168.8
2023-03-05T17:33:22.476Z,1178.1
2023-03-05T17:35:06.223Z,1180.8
2023-03-05T17:36:49.977Z,1186.4
2023-03-05T17:38:33.549Z,1200.6
2023-03-05T17:40:17.297Z,1210.2
2023-03-05T17:42:00.987Z,1205.9
2023-03-05T17:43:44.797Z,1201.4
2023-03-05T17:45:28.392Z,1193.6
2023-03-05T17:47:12.252Z,1186.3
2023-03-05T17:48:55.759Z,1182.6
2023-03-05T17:50:39.452Z,1187
2023-03-05T17:52:23.351Z,1187.1
2023-03-05T17:54:06.917Z,1187.4
2023-03-05T17:55:50.562Z,1180.1
2023-03-05T17:57:34.342Z,1178.7
2023-03-05T17:59:18.018Z,1178.4
2023-03-05T18:01:01.689Z,1176.9
2023-03-05T18:02:45.373Z,1176
2023-03-05T18:04:29.118Z,1174.9
2023-03-05T18:06:12.929Z,1177.7
2023-03-05T18:07:56.506Z,1182.2
2023-03-05T18:09:40.201Z,1186.2
2023-03-05T18:11:24.049Z,1189
2023-03-05T18:13:07.589Z,1190
2023-03-05T18:14:51.286Z,1193.2
2023-03-05T18:16:34.990Z,1198
2023-03-05T18:18:18.810Z,1197
2023-03-05T18:20:02.410Z,1199.6
2023-03-05T18:21:46.096Z,1201.2
2023-03-05T18:23:29.804Z,1204
2023-03-05T18:25:13.524Z,1206.2
2023-03-05T18:26:57.244Z,1207.7
2023-03-05T18:28:40.953Z,1209.3
2023-03-05T18:30:24.726Z,1215.9
2023-03-05T18:32:08.312Z,1224.6
2023-03-05T18:33:52.021Z,1228.4
2023-03-05T18:35:35.716Z,1231.9
2023-03-05T18:37:19.566Z,1226.7
2023-03-05T18:39:03.207Z,1228.2
2023-03-05T18:40:46.832Z,1237.3
2023-03-05T18:42:30.588Z,1237.4
2023-03-05T18:44:14.229Z,1234.8
2023-03-05T18:45:57.931Z,1235.4
2023-03-05T18:47:41.644Z,1234.9
2023-03-05T18:49:25.338Z,1242.2
2023-03-05T18:51:09.078Z,1243.7
2023-03-05T18:52:52.748Z,1244.3
2023-03-05T18:54:36.535Z,1246.6
2023-03-05T18:56:20.172Z,1242.9
2023-03-05T18:58:03.855Z,1242.2
2023-03-05T18:59:47.552Z,1245.7
2023-03-05T19:01:31.273Z,1251
2023-03-05T19:03:15.038Z,1248.5
2023-03-05T19:04:58.666Z,1244.3
2023-03-05T19:06:42.374Z,1236.3
2023-03-05T19:08:26.077Z,1229.5
2023-03-05T19:10:09.814Z,1215.5
2023-03-05T19:11:53.577Z,1208.7
2023-03-05T19:13:37.206Z,1208.6
2023-03-05T19:15:20.943Z,1208.7
2023-03-05T19:17:04.649Z,1220.9
2023-03-05T19:18:48.302Z,1221.4
2023-03-05T19:20:32.094Z,1230
2023-03-05T19:22:15.751Z,1235.4
2023-03-05T19:23:59.403Z,1233.6
2023-03-05T19:25:43.251Z,1235.1
2023-03-05T19:27:26.804Z,1239.5
2023-03-05T19:30:54.201Z,1249.4
2023-03-05T19:32:38.061Z,1251.2
2023-03-05T19:34:21.621Z,1252.3
2023-03-05T19:36:05.392Z,1250.9
2023-03-05T19:37:49.015Z,1253.5
2023-03-05T19:39:32.879Z,1253.2
2023-03-05T19:41:16.554Z,1253.7
2023-03-05T19:43:00.264Z,1261
2023-03-05T19:44:44.030Z,1329.8
2023-03-05T19:46:27.524Z,1377.5
2023-03-05T19:48:11.364Z,1401.8
2023-03-05T19:49:55.140Z,1049.7
2023-03-05T19:51:38.725Z,533.1
2023-03-05T19:53:22.464Z,470.7
2023-03-05T19:55:06.219Z,453.2
2023-03-05T19:56:49.870Z,447.1
2023-03-05T19:58:33.461Z,455.3
2023-03-05T20:00:17.188Z,543.2
2023-03-05T20:02:00.961Z,819.6
2023-03-05T20:03:44.667Z,745.6
2023-03-05T20:05:28.256Z,696.9
2023-03-05T20:07:11.966Z,692
2023-03-05T20:08:55.682Z,682.9
2023-03-05T20:10:39.417Z,679.8
2023-03-05T20:12:23.097Z,677.4
2023-03-05T20:14:06.755Z,674.7
2023-03-05T20:15:50.467Z,672.8
2023-03-05T20:17:34.169Z,674.7
2023-03-05T20:19:17.871Z,676.7
2023-03-05T20:21:01.583Z,677
2023-03-05T20:22:45.297Z,678.3
2023-03-05T20:24:28.984Z,679.5
2023-03-05T20:26:12.691Z,680.7
2023-03-05T20:27:56.398Z,681.5
2023-03-05T20:29:40.094Z,683.8
2023-03-05T20:31:23.794Z,685.5
2023-03-05T20:33:07.489Z,685.2
2023-03-05T20:34:51.311Z,684.6
2023-03-05T20:36:34.972Z,685.5
2023-03-05T20:38:18.600Z,684.8
2023-03-05T20:40:02.302Z,683.9
2023-03-05T20:41:46.077Z,683.3
2023-03-05T20:43:29.705Z,688
2023-03-05T20:45:13.412Z,688.2
2023-03-05T20:48:40.879Z,685
2023-03-05T20:50:24.617Z,687
2023-03-05T20:52:08.287Z,690.9
2023-03-05T20:53:52.015Z,689.6
2023-03-05T20:55:35.617Z,687
2023-03-05T20:57:19.323Z,689.3
2023-03-05T20:59:03.028Z,694
2023-03-05T21:00:46.725Z,694.1
2023-03-05T21:02:30.471Z,693.5
2023-03-05T21:04:14.140Z,694.1
2023-03-05T21:05:57.844Z,697
2023-03-05T21:07:41.622Z,697.3
2023-03-05T21:09:25.249Z,698.4
2023-03-05T21:11:08.943Z,709.9
2023-03-05T21:12:52.652Z,745
2023-03-05T21:14:36.465Z,762.2
2023-03-05T21:16:20.065Z,761.9
2023-03-05T21:18:03.758Z,757.2
2023-03-05T21:19:47.472Z,743.6
2023-03-05T21:21:31.164Z,742.4
2023-03-05T21:23:14.867Z,745
2023-03-05T21:24:58.585Z,743.2
2023-03-05T21:26:42.287Z,743.9
2023-03-05T21:28:26.187Z,747.4
2023-03-05T21:30:09.704Z,746.2
2023-03-05T21:31:53.433Z,745.2
2023-03-05T21:33:37.080Z,743
2023-03-05T21:35:20.903Z,743.2
2023-03-05T21:37:04.488Z,747.4
2023-03-05T21:38:48.321Z,747.8
2023-03-05T21:40:31.917Z,748.6
2023-03-05T21:42:15.616Z,746
2023-03-05T21:43:59.358Z,743.3
2023-03-05T21:45:42.998Z,744
2023-03-05T21:47:26.705Z,748.1
2023-03-05T21:49:10.423Z,753.4
2023-03-05T21:50:54.175Z,752.5
2023-03-05T21:52:37.845Z,753
2023-03-05T21:54:21.567Z,752.8
2023-03-05T21:56:05.201Z,753.2
2023-03-05T21:57:49.046Z,749.1
2023-03-05T21:59:32.648Z,750.7
2023-03-05T22:01:16.318Z,751.2
2023-03-05T22:03:00.017Z,750.5
2023-03-05T22:04:43.718Z,754
2023-03-05T22:06:27.545Z,760.5